x

New London Ledge Ct - Ledge Light Weather Station (ldlc3) Weather Station

4:35am - Sat 1st Oct 2016 All times are EDT. -4 hours from GMT.

  • Wind
    13mph, 21mph gusts
  • Air Temp 60°f
  • Sea Pressure 1022.1mb
  • New London Ledge Ct - Ledge Light Weather Station
  • New London Ledge Ct - Ledge Light Weather Station

More Historic Weather Station data

Upgrade to MSW Pro to gain access to the past 30 days of data for over 8000 Wavebouys and Weather Stations around the globe.

Join Pro

Comparision Forecast

View Surf forecast
   
Sat 10/01 4:35am 13 21 mph 1022.1mb 60f
4:20am 14 20 mph 1022mb 60f
4:05am 11 17 mph 1022.1mb 59f
3:50am 14 21 mph 1022.2mb 59f
3:35am 14 21 mph 1022.3mb 59f
3:20am 13 18 mph 1022.5mb 59f
3:05am 14 21 mph 1022.4mb 59f
2:50am 13 16 mph 1022.5mb 59f
2:35am 14 20 mph 1022.5mb 59f
2:20am 14 21 mph 1022.8mb 59f
2:05am 14 21 mph 1023mb 59f
1:50am 14 20 mph 1023.1mb 59f
1:35am 13 17 mph 1023.2mb 59f
1:20am 13 18 mph 1023.2mb 59f
1:05am 13 21 mph 1023.2mb 59f
Fri 09/30 7:50pm 15 22 mph 1024.4mb 58f
7:35pm 15 22 mph 1024.5mb 58f
7:05pm 16 22 mph 1024.6mb 58f
6:50pm 16 22 mph 1024.6mb 58f
6:35pm 16 23 mph 1024.6mb 58f
6:20pm 17 28 mph 1024.5mb 58f
6:05pm 17 26 mph 1024.6mb 58f
5:50pm 17 25 mph 1024.7mb 58f
5:35pm 15 22 mph 1024.8mb 58f
5:20pm 16 23 mph 1024.8mb 58f
5:05pm 17 29 mph 1024.8mb 58f
4:50pm 17 25 mph 1025mb 59f
4:35pm 21 30 mph 1024.8mb 59f
4:20pm 21 29 mph 1024.8mb 59f
4:05pm 16 23 mph 1025mb 59f
3:50pm 16 24 mph 1025mb 60f
3:35pm 17 26 mph 1025mb 59f
3:20pm 18 25 mph 1025.2mb 59f
3:05pm 16 22 mph 1025.2mb 59f
2:50pm 16 26 mph 1025.5mb 59f
2:35pm 14 21 mph 1025.7mb 60f
2:20pm 16 23 mph 1025.7mb 60f
2:05pm 14 21 mph 1025.9mb 60f
1:50pm 16 26 mph 1026mb 60f
1:35pm 15 23 mph 1026.2mb 60f
1:20pm 14 23 mph 1026.5mb 59f
1:05pm 16 23 mph 1026.8mb 60f
12:50pm 16 22 mph 1026.8mb 60f
12:35pm 16 23 mph 1026.8mb 60f
12:20pm 16 24 mph 1026.7mb 60f
12:05pm 16 23 mph 1026.8mb 61f
11:50am 18 25 mph 1026.9mb 61f
11:35am 24 31 mph 1026.7mb 61f
11:20am 22 31 mph 1026.7mb 62f
11:05am 23 31 mph 1026.7mb 62f
10:50am 22 28 mph 1026.8mb 62f
10:35am 25 30 mph 1026.8mb 62f
10:20am 28 36 mph 1026.5mb 62f
10:05am 24 30 mph 1026.7mb 62f
9:50am 22 30 mph 1026.9mb 62f
9:35am 23 29 mph 1026.8mb 61f
9:20am 17 25 mph 1027.3mb 61f
9:05am 18 29 mph 1027mb 60f
8:50am 16 25 mph 1026.9mb 60f
8:35am 17 25 mph 1026.9mb 60f
8:20am 16 23 mph 1027.2mb 60f
8:05am 18 29 mph 1026.9mb 60f
7:50am 16 22 mph 1027mb 59f
7:35am 16 25 mph 1027mb 59f
7:20am 16 26 mph 1027.1mb 59f
7:05am 15 20 mph 1027.1mb 59f
6:50am 17 28 mph 1027.1mb 59f
6:35am 15 25 mph 1027.2mb 58f
6:20am 16 22 mph 1027.2mb 58f
6:05am 16 22 mph 1027mb 58f
5:50am 15 21 mph 1026.9mb 58f
5:35am 15 21 mph 1027.1mb 58f
5:20am 14 23 mph 1027mb 58f
5:05am 15 20 mph 1026.9mb 58f
4:50am 15 21 mph 1027mb 58f
4:35am 16 22 mph 1026.9mb 58f
4:20am 15 20 mph 1026.9mb 58f
4:05am 14 22 mph 1027.3mb 58f
3:50am 15 20 mph 1027.2mb 58f
3:35am 14 18 mph 1027.4mb 58f
3:20am 15 21 mph 1027.5mb 58f
3:05am 15 24 mph 1027.6mb 58f
2:50am 14 21 mph 1027.7mb 58f
2:35am 15 21 mph 1027.8mb 58f
2:20am 15 23 mph 1027.9mb 58f
2:05am 16 25 mph 1028.1mb 58f
1:50am 16 25 mph 1028mb 58f
1:35am 16 26 mph 1027.9mb 58f
1:20am 17 23 mph 1028.4mb 58f
1:05am 15 25 mph 1028.5mb 58f
Thu 09/29 7:50pm 21 28 mph 1029.2mb 58f
7:35pm 17 22 mph 1029.3mb 58f
7:20pm 17 26 mph 1029.2mb 58f
7:05pm 15 18 mph 1029.1mb 58f
6:50pm 16 21 mph 1029.1mb 58f
6:35pm 21 28 mph 1028.6mb 58f
6:20pm 18 26 mph 1028.9mb 59f
6:05pm 20 26 mph 1028.7mb 59f
5:50pm 16 22 mph 1028.8mb 59f
5:35pm 16 22 mph 1028.8mb 60f
5:20pm 18 24 mph 1029.1mb 60f
5:05pm 24 28 mph 1028.7mb 60f
4:50pm 20 28 mph 1028.7mb 60f
4:35pm 22 28 mph 1028.7mb 61f
4:20pm 20 25 mph 1028.6mb 61f
4:05pm 21 26 mph 1028.6mb 62f
3:50pm 24 29 mph 1028.4mb 62f
3:35pm 23 29 mph 1028.3mb 62f
3:20pm 20 29 mph 1028.3mb 62f
3:05pm 21 28 mph 1028.4mb 62f
2:50pm 21 29 mph 1028.5mb 62f
2:35pm 21 24 mph 1028.5mb 63f
2:20pm 21 29 mph 1028.7mb 63f
2:05pm 20 25 mph 1028.7mb 62f
1:50pm 24 28 mph 1028.7mb 63f
1:35pm 20 26 mph 1028.7mb 63f
1:20pm 24 30 mph 1028.7mb 62f
1:05pm 24 29 mph 1028.9mb 62f
12:50pm 24 28 mph 1029mb 62f
12:35pm 17 25 mph 1029.1mb 62f
12:20pm 15 22 mph 1029.2mb 62f
12:05pm 23 28 mph 1029mb 62f
11:50am 23 28 mph 1029mb 61f
11:35am 28 34 mph 1028.7mb 61f
11:20am 17 28 mph 1028.6mb 61f
11:05am 24 28 mph 1028.7mb 60f
10:50am 20 26 mph 1028.9mb 60f
10:35am 28 36 mph 1028.2mb 60f
10:20am 28 36 mph 1028.2mb 60f
10:05am 23 29 mph 1028.1mb 60f
9:50am 14 24 mph 1028.5mb 60f
9:35am 15 24 mph 1028.6mb 60f
9:20am 18 30 mph 1028.1mb 60f
9:05am 18 23 mph 1027.8mb 59f
8:50am 18 28 mph 1027.7mb 59f
8:35am 16 21 mph 1027.5mb 58f
8:20am 15 21 mph 1027.3mb 58f
8:05am 16 23 mph 1027.6mb 58f
7:50am 15 24 mph 1027.4mb 58f
7:35am 16 22 mph 1027.1mb 58f
7:20am 15 22 mph 1027.2mb 58f
7:05am 14 21 mph 1027.2mb 59f
6:50am 14 20 mph 1026.9mb 59f
6:35am 13 21 mph 1026.8mb 59f
6:20am 14 20 mph 1026.6mb 59f
6:05am 14 18 mph 1026.5mb 59f
5:50am 13 17 mph 1026.5mb 60f
5:35am 14 17 mph 1026.3mb 60f
5:20am 13 18 mph 1026.3mb 60f
5:05am 15 21 mph 1026mb 60f
4:50am 11 16 mph 1025.8mb 60f
4:35am 13 17 mph 1025.8mb 60f
4:20am 15 21 mph 1025.4mb 60f
4:05am 16 22 mph 1025.1mb 60f
3:50am 15 22 mph 1025.1mb 60f
3:35am 16 25 mph 1025mb 60f
3:20am 15 23 mph 1025mb 60f
3:05am 13 21 mph 1025.1mb 60f
2:50am 15 21 mph 1025mb 60f
2:35am 17 26 mph 1024.9mb 60f
2:20am 14 20 mph 1025mb 60f
2:05am 16 23 mph 1024.6mb 60f
1:50am 13 21 mph 1024.7mb 60f
1:35am 14 20 mph 1024.6mb 60f
1:20am 13 23 mph 1024.6mb 60f
1:05am 14 23 mph 1024.5mb 60f
Wed 09/28 7:50pm 16 23 mph 1022.8mb 58f
7:35pm 14 21 mph 1022.5mb 58f
7:20pm 18 26 mph 1022.4mb 58f
7:05pm 16 23 mph 1022.4mb 58f
6:50pm 16 25 mph 1022.4mb 58f
6:35pm 13 20 mph 1022.3mb 58f
6:20pm 16 23 mph 1021.9mb 58f
6:05pm 13 20 mph 1022.2mb 59f
5:50pm 17 28 mph 1021.9mb 59f
5:35pm 18 30 mph 1022mb 59f
5:20pm 17 26 mph 1021.8mb 59f
5:05pm 17 29 mph 1021.7mb 59f
4:50pm 21 29 mph 1021.4mb 59f
4:35pm 15 21 mph 1021.4mb 60f
4:20pm 18 28 mph 1021.1mb 60f
4:05pm 14 18 mph 1021mb 61f
3:50pm 17 32 mph 1021mb 61f
3:35pm 15 20 mph 1021.1mb 62f
3:20pm 17 28 mph 1021.2mb 62f
3:05pm 17 24 mph 1020.7mb 62f
2:50pm 16 23 mph 1020.7mb 62f
2:35pm 16 23 mph 1020.5mb 63f
2:20pm 21 31 mph 1020.4mb 63f
2:05pm 16 24 mph 1020.4mb 64f
1:50pm 17 26 mph 1020.4mb 64f
1:35pm 17 28 mph 1020.2mb 64f
1:20pm 20 26 mph 1020.1mb 64f
1:05pm 14 23 mph 1020.3mb 64f
12:50pm 20 29 mph 1020.3mb 63f
12:35pm 15 24 mph 1020.5mb 63f
12:20pm 16 23 mph 1020.8mb 63f
12:05pm 18 24 mph 1020.4mb 63f
11:50am 20 29 mph 1020.5mb 63f
11:35am 17 29 mph 1020.2mb 63f
11:20am 20 26 mph 1020.2mb 62f
11:05am 18 28 mph 1020.2mb 62f
10:50am 24 33 mph 1020mb 62f
10:35am 26 32 mph 1020mb 62f
10:20am 20 30 mph 1019.9mb 62f
10:05am 17 23 mph 1019.8mb 63f
9:50am 18 28 mph 1019.9mb 63f
9:35am 15 23 mph 1019.9mb 63f
9:20am 15 21 mph 1019.9mb 63f
9:05am 16 22 mph 1019.7mb 63f
8:50am 16 24 mph 1019.6mb 63f
8:35am 13 18 mph 1019.4mb 62f
8:20am 14 21 mph 1019.1mb 62f
8:05am 14 20 mph 1019mb 62f
7:50am 13 20 mph 1018.8mb 62f
7:35am 11 17 mph 1018.7mb 62f
7:20am 15 21 mph 1018.4mb 62f
7:05am 15 22 mph 1018.2mb 62f
6:50am 14 21 mph 1018.1mb 62f
6:35am 11 17 mph 1018mb 63f
6:20am 16 23 mph 1017.8mb 63f
6:05am 17 21 mph 1017.7mb 62f
5:50am 10 15 mph 1017.5mb 62f
5:35am 10 13 mph 1017.1mb 62f
5:20am 9 14 mph 1017.1mb 62f
5:05am 10 15 mph 1017.1mb 61f
4:50am 10 14 mph 1017mb 61f
4:35am 9 11 mph 1016.9mb 60f
4:20am 9 14 mph 1016.7mb 60f
4:05am 11 14 mph 1016.8mb 60f
3:50am 8 10 mph 1016.6mb 60f
3:35am 7 11 mph 1016.6mb 60f
3:20am 6 9 mph 1016.6mb 60f
3:05am 5 7 mph 1016.4mb 60f
2:50am 13 15 mph 1016mb 61f
2:35am 11 14 mph 1016mb 61f
2:20am 14 16 mph 1015.8mb 61f
2:05am 14 17 mph 1015.7mb 61f
1:50am 15 16 mph 1015.7mb 61f
1:35am 16 18 mph 1015.7mb 61f
1:20am 15 16 mph 1015.8mb 62f
1:05am 14 15 mph 1015.4mb 62f
Tue 09/27 7:50pm 8 9 mph 1013.3mb 68f
7:35pm 9 10 mph 1013.3mb 68f
7:20pm 7 8 mph 1013.1mb 68f
7:05pm 8 10 mph 1012.9mb 68f
6:50pm 8 9 mph 1012.8mb 68f
6:35pm 9 10 mph 1012.7mb 68f
6:20pm 9 10 mph 1012.7mb 68f
6:05pm 8 9 mph 1012.6mb 69f
5:50pm 7
mph
1012.4mb 69f
5:35pm 5 6 mph 1012mb 70f
5:20pm 5
mph
1011.9mb 69f
5:05pm 6 7 mph 1011.8mb 68f
4:50pm 7 8 mph 1011.9mb 69f
4:35pm 8 9 mph 1011.9mb 69f
4:20pm 8 9 mph 1011.9mb 69f
4:05pm 3 5 mph 1011.6mb 70f
3:50pm 6 7 mph 1011.8mb 69f
3:35pm 6 7 mph 1011.7mb 69f
3:20pm 5 6 mph 1011.8mb 70f
3:05pm 5 6 mph 1011.8mb 70f
2:50pm 6 7 mph 1012mb 70f
2:35pm 6 7 mph 1012mb 70f
2:20pm 6 7 mph 1012mb 70f
2:05pm 6
mph
1011.9mb 69f
1:50pm 3 5 mph 1011.8mb 70f
1:35pm 2 3 mph 1011.8mb 70f
1:20pm 2 3 mph 1012mb 69f
1:05pm 1 2 mph 1012.3mb 72f
12:50pm 2 3 mph 1012.5mb 71f
12:35pm 5 7 mph 1012.5mb 69f
12:20pm 6 7 mph 1012.5mb 69f
12:05pm 6 7 mph 1012.5mb 68f
11:50am 8 10 mph 1012.7mb 67f
11:35am 8 10 mph 1012.7mb 67f
11:20am 9 10 mph 1012.5mb 67f
11:05am 8 10 mph 1012.7mb 67f
10:50am 6 10 mph 1012.8mb 67f
10:35am 7
mph
1012.7mb 67f
10:20am 6 7 mph 1012.6mb 67f
10:05am 6 7 mph 1012.5mb 67f
9:50am 6 8 mph 1012.4mb 66f
9:35am 9 11 mph 1012.5mb 67f
9:20am 6 8 mph 1012.4mb 67f